Time;durP1;ratioP1;P1;durP2;ratioP2;P2;SDS_P1;SDS_P2;PMS_P1;PMS_P2;Temp;Humidity;BMP_temperature;BMP_pressure;BME280_temperature;BME280_humidity;BME280_pressure;Samples;Min_cycle;Max_cycle;Signal;HPM_P1;HPM_P2
2023/05/16 00:01:00;;;;;;;;;;;16.60;90.10;;;16.85;54.49;98348.31;5058205;27;123863;-86
2023/05/16 00:03:37;;;;;;;;;;;16.60;90.20;;;16.85;54.89;98360.28;5080587;27;114522;-85
2023/05/16 00:06:07;;;;;;;;;;;16.60;90.20;;;16.84;54.69;98355.06;5070591;27;113294;-86
2023/05/16 00:08:34;;;;;;;;;;;16.50;90.30;;;16.83;54.75;98359.03;5067259;27;123361;-87
2023/05/16 00:11:00;;;;;;;;;;;16.50;90.30;;;16.83;55.03;98353.44;5080272;27;124025;-87
2023/05/16 00:13:32;;;;;;;;;;;16.60;90.50;;;16.81;55.11;98351.03;5078207;27;113628;-87
2023/05/16 00:19:43;;;;;;;;;;;16.50;90.50;;;16.76;54.89;98349.31;5083939;27;123778;-85
2023/05/16 00:22:37;;;;;;;;;;;16.50;90.50;;;16.73;54.95;98344.44;5059893;27;123821;-85
2023/05/16 00:25:05;;;;;;;;;;;16.50;90.50;;;16.71;54.94;98340.38;5040702;27;113861;-85
2023/05/16 00:27:52;;;;;;;;;;;16.50;90.50;;;16.69;54.95;98354.72;5035263;27;113597;-85
2023/05/16 00:30:28;;;;;;;;;;;16.50;90.60;;;16.65;55.16;98348.25;5033258;27;124329;-88
2023/05/16 00:36:39;;;;;;;;;;;16.40;90.60;;;16.51;55.47;98347.91;5047402;27;114143;-88
2023/05/16 00:39:24;;;;;;;;;;;16.30;90.70;;;16.45;55.61;98344.59;5043323;27;113802;-86
2023/05/16 00:42:48;;;;;;;;;;;16.30;90.80;;;16.44;55.74;98350.53;5041039;27;124878;-87
2023/05/16 00:45:17;;;;;;;;;;;16.30;90.80;;;16.43;56.03;98337.78;5024542;28;124164;-87
2023/05/16 00:47:50;;;;;;;;;;;16.20;90.90;;;16.44;55.99;98342.16;5025424;27;113561;-87
2023/05/16 00:50:40;;;;;;;;;;;16.20;90.90;;;16.41;56.00;98348.47;5027504;27;113245;-85
2023/05/16 00:53:25;;;;;;;;;;;16.20;91.00;;;16.37;56.16;98348.41;5021259;27;124662;-87
2023/05/16 00:56:12;;;;;;;;;;;16.20;91.10;;;16.34;56.23;98337.97;5016618;28;124061;-87
2023/05/16 00:58:39;;;;;;;;;;;16.20;91.10;;;16.33;56.34;98350.28;5026907;28;114447;-87
2023/05/16 01:01:24;;;;;;;;;;;16.10;91.20;;;16.30;56.37;98346.25;5002798;28;113267;-88
2023/05/16 01:03:50;;;;;;;;;;;16.10;91.30;;;16.25;56.73;98352.09;5009736;28;123794;-87
2023/05/16 01:06:38;;;;;;;;;;;16.00;91.30;;;16.25;56.56;98345.72;5028571;28;123764;-87
2023/05/16 01:09:30;;;;;;;;;;;16.10;91.40;;;16.24;56.63;98344.91;5022495;27;114583;-88
2023/05/16 01:12:42;;;;;;;;;;;16.00;91.50;;;16.20;56.71;98344.03;5009495;28;113625;-88
2023/05/16 01:15:09;;;;;;;;;;;16.00;91.60;;;16.17;57.10;98339.16;5010968;28;123675;-87
2023/05/16 01:18:02;;;;;;;;;;;15.90;91.60;;;16.16;57.03;98342.31;5026718;28;124323;-87
2023/05/16 01:20:55;;;;;;;;;;;16.00;91.70;;;16.14;56.86;98351.03;5051028;27;114704;-87
2023/05/16 01:27:23;;;;;;;;;;;15.90;91.70;;;16.04;57.14;98355.19;4998864;28;124841;-87
2023/05/16 01:30:40;;;;;;;;;;;15.90;91.70;;;16.00;57.10;98350.69;4988278;28;125548;-88
2023/05/16 01:40:23;;;;;;;;;;;15.80;91.80;;;15.81;57.57;98351.38;5033174;27;124851;-87
2023/05/16 01:42:52;;;;;;;;;;;15.70;91.80;;;15.66;58.43;98356.56;5003768;28;123411;-88
2023/05/16 01:48:52;;;;;;;;;;;15.50;92.30;;;15.43;58.55;98356.31;4930803;28;115209;-88
2023/05/16 01:51:34;;;;;;;;;;;15.40;92.30;;;15.35;58.98;98343.38;4914447;28;124043;-91
2023/05/16 01:54:23;;;;;;;;;;;15.30;92.40;;;15.29;59.32;98355.94;4921954;28;124085;-88
2023/05/16 01:57:07;;;;;;;;;;;15.20;92.50;;;15.20;59.42;98352.47;4909245;28;113806;-87
2023/05/16 01:59:35;;;;;;;;;;;15.20;92.60;;;15.14;59.54;98354.72;4910672;28;113905;-90
2023/05/16 02:02:04;;;;;;;;;;;15.10;92.80;;;15.11;59.67;98355.41;4906020;28;123563;-89
2023/05/16 02:04:36;;;;;;;;;;;15.00;92.80;;;15.07;59.68;98359.25;4918453;28;124413;-89
2023/05/16 02:10:25;;;;;;;;;;;15.00;93.10;;;15.00;60.09;98354.31;4926939;28;114333;-89
2023/05/16 02:15:38;;;;;;;;;;;14.90;93.20;;;15.00;60.38;98357.09;4949739;28;123877;-89
2023/05/16 02:18:28;;;;;;;;;;;14.90;93.30;;;14.99;60.18;98353.50;4949759;28;113603;-89
2023/05/16 02:20:55;;;;;;;;;;;14.80;93.40;;;14.97;60.16;98355.81;4921025;28;113606;-89
2023/05/16 02:23:21;;;;;;;;;;;14.80;93.40;;;14.99;60.34;98359.06;4949826;28;126931;-89
2023/05/16 02:26:05;;;;;;;;;;;14.80;93.40;;;14.97;60.20;98361.38;5003035;27;123829;-88
2023/05/16 02:28:32;;;;;;;;;;;14.80;93.50;;;14.97;60.27;98361.38;5057050;27;114314;-88
2023/05/16 02:31:07;;;;;;;;;;;14.80;93.50;;;14.98;60.32;98362.19;5063385;27;113597;-88
2023/05/16 02:34:27;;;;;;;;;;;14.80;93.60;;;14.96;60.05;98359.78;5077515;27;123952;-88
2023/05/16 02:36:53;;;;;;;;;;;14.80;93.60;;;14.95;60.42;98363.69;5089169;27;123947;-88
2023/05/16 02:39:26;;;;;;;;;;;13.60;93.20;;;14.92;60.37;98364.41;5091658;27;115191;-89
2023/05/16 02:42:08;;;;;;;;;;;14.70;93.70;;;14.89;60.32;98359.56;5057169;27;114112;-88
2023/05/16 02:44:34;;;;;;;;;;;14.70;93.80;;;14.86;60.66;98360.25;5067773;27;124535;-88
2023/05/16 02:47:03;;;;;;;;;;;14.70;93.80;;;14.83;60.65;98363.75;5089440;27;124530;-89
2023/05/16 02:50:14;;;;;;;;;;;14.70;93.90;;;14.76;60.85;98363.53;5088119;27;114411;-88
2023/05/16 02:52:41;;;;;;;;;;;14.60;93.90;;;14.76;60.91;98374.66;5003010;28;113667;-89
2023/05/16 02:55:20;;;;;;;;;;;14.60;94.00;;;14.73;60.90;98372.56;4992371;28;123359;-89
2023/05/16 02:58:20;;;;;;;;;;;14.60;94.00;;;14.72;60.79;98373.72;4992392;28;123124;-89
2023/05/16 03:00:49;;;;;;;;;;;14.50;94.10;;;14.71;61.25;98374.88;4988004;28;113333;-89
2023/05/16 03:03:25;;;;;;;;;;;14.50;94.20;;;14.71;61.18;98374.88;5010020;28;114639;-88
2023/05/16 03:05:57;;;;;;;;;;;14.50;94.30;;;14.67;61.27;98373.94;5009471;28;124015;-89
2023/05/16 03:08:24;;;;;;;;;;;14.40;94.30;;;14.62;61.26;98366.69;5023370;28;124122;-89
2023/05/16 03:11:25;;;;;;;;;;;14.40;94.30;;;14.58;61.39;98374.88;5009792;28;114386;-88
2023/05/16 03:14:00;;;;;;;;;;;14.40;94.40;;;14.54;61.66;98371.22;5001581;28;113967;-88
2023/05/16 03:17:06;;;;;;;;;;;14.40;94.50;;;14.49;61.85;98379.75;4974401;28;123718;-87
2023/05/16 03:19:42;;;;;;;;;;;14.30;94.60;;;14.46;61.77;98374.88;5008762;28;124116;-89
2023/05/16 03:22:11;;;;;;;;;;;14.30;94.60;;;14.43;61.88;98386.72;5006242;28;114373;-89
2023/05/16 03:25:13;;;;;;;;;;;14.30;94.70;;;14.41;62.03;98374.31;5004885;28;113266;-89
2023/05/16 03:27:58;;;;;;;;;;;14.30;94.70;;;14.42;62.19;98368.38;4986920;28;124339;-89
2023/05/16 03:30:25;;;;;;;;;;;14.20;94.80;;;14.42;62.17;98376.72;5022146;28;124807;-89
2023/05/16 03:33:00;;;;;;;;;;;14.20;94.80;;;14.41;62.11;98379.88;5010355;27;114421;-89
2023/05/16 03:35:34;;;;;;;;;;;14.20;94.90;;;14.39;62.33;98380.22;5018518;28;114541;-87
2023/05/16 03:41:48;;;;;;;;;;;14.20;95.00;;;14.32;62.44;98382.78;4928739;28;124646;-89
2023/05/16 03:44:15;;;;;;;;;;;14.20;95.10;;;14.30;62.69;98376.75;4930068;28;114665;-89
2023/05/16 03:46:54;;;;;;;;;;;14.10;95.10;;;14.30;62.51;98374.78;4929185;28;114530;-89
2023/05/16 03:49:27;;;;;;;;;;;14.10;95.20;;;14.30;62.84;98383.13;4944772;28;123816;-90
2023/05/16 03:52:22;;;;;;;;;;;14.10;95.30;;;14.29;62.98;98377.88;4926888;28;124573;-90
2023/05/16 03:54:51;;;;;;;;;;;14.10;95.40;;;14.29;62.82;98380.66;4927069;28;114361;-89
2023/05/16 03:57:50;;;;;;;;;;;14.10;95.40;;;14.30;62.94;98382.31;4930431;28;113906;-90
2023/05/16 04:01:15;;;;;;;;;;;14.10;95.40;;;14.29;62.77;98381.50;4906498;28;122849;-88
2023/05/16 04:07:06;;;;;;;;;;;14.10;95.60;;;14.26;63.27;98386.94;4929082;28;114869;-89
2023/05/16 04:09:59;;;;;;;;;;;14.00;95.60;;;14.26;63.26;98392.47;4921550;28;114431;-89
2023/05/16 04:12:25;;;;;;;;;;;14.00;95.70;;;14.26;63.49;98384.94;4980408;28;124367;-89
2023/05/16 04:15:37;;;;;;;;;;;14.00;95.80;;;14.28;63.33;98395.72;4971438;28;123591;-88
2023/05/16 04:20:59;;;;;;;;;;;14.00;95.90;;;14.26;63.60;98404.41;4966771;28;113321;-88
2023/05/16 04:26:30;;;;;;;;;;;14.00;96.00;;;14.27;63.73;98405.25;4966446;28;124628;-88
2023/05/16 04:29:00;;;;;;;;;;;14.10;96.10;;;14.30;63.67;98404.53;4966622;28;115070;-88
2023/05/16 04:31:26;;;;;;;;;;;14.00;96.10;;;14.31;63.81;98406.97;4966217;28;114807;-88
2023/05/16 04:34:04;;;;;;;;;;;14.10;96.20;;;14.34;63.70;98411.81;4960197;28;124541;-89
2023/05/16 04:36:52;;;;;;;;;;;14.00;96.20;;;14.35;63.82;98407.91;4946875;28;124511;-88
2023/05/16 04:39:24;;;;;;;;;;;14.10;96.30;;;14.39;63.57;98404.41;4967244;28;114440;-89
2023/05/16 04:41:51;;;;;;;;;;;14.10;96.30;;;14.40;63.81;98415.19;5031934;28;113361;-88
2023/05/16 04:44:17;;;;;;;;;;;14.10;96.30;;;14.39;63.70;98408.00;5028240;28;124149;-88
2023/05/16 04:47:17;;;;;;;;;;;14.10;96.40;;;14.40;63.63;98411.59;5027837;28;123760;-87
2023/05/16 04:49:49;;;;;;;;;;;14.10;96.40;;;14.39;63.72;98421.91;5013620;28;114995;-88
2023/05/16 04:52:16;;;;;;;;;;;14.10;96.40;;;14.40;63.94;98420.75;5025730;27;113806;-88
2023/05/16 04:58:37;;;;;;;;;;;14.10;96.50;;;14.40;64.16;98420.75;4954419;28;124139;-88
2023/05/16 05:01:11;;;;;;;;;;;14.10;96.70;;;14.43;64.05;98424.81;4960067;28;114135;-85
2023/05/16 05:03:50;;;;;;;;;;;14.10;96.70;;;14.41;64.10;98425.16;4947656;28;114377;-87
2023/05/16 05:06:16;;;;;;;;;;;14.10;96.80;;;14.40;64.50;98426.31;4943458;28;124236;-87
2023/05/16 05:08:53;;;;;;;;;;;14.10;97.00;;;14.40;64.54;98425.50;4937315;28;124033;-84
2023/05/16 05:11:47;;;;;;;;;;;14.10;96.90;;;14.40;64.35;98434.66;4942930;28;115575;-86
2023/05/16 05:14:45;;;;;;;;;;;14.10;96.90;;;14.42;64.32;98434.28;4948863;28;113769;-85
2023/05/16 05:17:15;;;;;;;;;;;14.10;96.90;;;14.40;64.42;98434.66;4944747;28;124231;-88
2023/05/16 05:19:41;;;;;;;;;;;14.10;96.90;;;14.42;64.61;98431.53;4949645;28;124010;-85
2023/05/16 05:22:22;;;;;;;;;;;14.10;97.00;;;14.43;64.46;98431.19;4949053;28;115267;-87
2023/05/16 05:25:01;;;;;;;;;;;14.20;97.00;;;14.44;64.55;98432.78;4945659;28;113873;-86
2023/05/16 05:30:51;;;;;;;;;;;14.20;97.00;;;14.47;64.59;98437.66;4958404;28;124607;-87
2023/05/16 05:36:42;;;;;;;;;;;14.20;97.10;;;14.49;64.53;98438.13;5077769;27;114405;-87
2023/05/16 05:39:11;;;;;;;;;;;14.20;97.20;;;14.48;64.62;98435.69;5061975;27;124238;-86
2023/05/16 05:41:38;;;;;;;;;;;14.20;97.50;;;14.46;64.95;98430.47;5076664;27;123712;-86
2023/05/16 05:44:07;;;;;;;;;;;14.20;97.30;;;14.48;64.91;98433.72;5060927;27;115001;-88
2023/05/16 05:46:33;;;;;;;;;;;14.10;97.30;;;14.49;64.72;98437.31;5063432;27;113358;-86
2023/05/16 05:49:00;;;;;;;;;;;15.70;98.10;;;14.50;64.99;98448.06;5082128;27;124243;-85
2023/05/16 05:51:26;;;;;;;;;;;14.20;97.40;;;14.50;65.18;98447.28;5051512;27;123468;-85
2023/05/16 05:53:53;;;;;;;;;;;14.20;97.50;;;14.50;64.77;98445.28;5058151;27;114415;-86
2023/05/16 05:56:20;;;;;;;;;;;14.20;97.40;;;14.52;64.85;98451.34;5061498;27;112890;-84
2023/05/16 05:58:48;;;;;;;;;;;14.20;97.40;;;14.52;64.92;98451.34;5078932;27;123933;-87
2023/05/16 06:01:15;;;;;;;;;;;14.20;97.50;;;14.52;65.01;98448.56;5064886;27;124154;-87
2023/05/16 06:03:42;;;;;;;;;;;14.30;97.60;;;14.54;64.82;98460.16;5070423;27;114597;-86
2023/05/16 06:06:08;;;;;;;;;;;14.30;97.40;;;14.56;64.85;98460.63;5085884;27;114526;-87
2023/05/16 06:08:34;;;;;;;;;;;14.30;97.40;;;14.61;64.77;98464.34;5082905;27;124504;-87
2023/05/16 06:11:03;;;;;;;;;;;14.30;97.40;;;14.61;64.59;98464.34;5071879;27;123857;-86
2023/05/16 06:13:32;;;;;;;;;;;14.30;97.30;;;14.62;64.55;98469.56;5080086;27;116024;-86
2023/05/16 06:15:58;;;;;;;;;;;14.30;97.30;;;14.64;64.40;98466.41;5064273;27;114775;-87
2023/05/16 06:18:27;;;;;;;;;;;14.30;97.30;;;14.67;64.36;98463.75;5080109;27;124105;-86
2023/05/16 06:20:55;;;;;;;;;;;14.40;97.30;;;14.71;64.46;98458.31;5078625;27;125029;-87
2023/05/16 06:23:24;;;;;;;;;;;14.40;97.30;;;14.73;64.18;98462.38;5071914;27;114454;-86
2023/05/16 06:25:50;;;;;;;;;;;14.40;97.30;;;14.75;64.20;98462.03;5073261;27;114235;-85
2023/05/16 06:28:16;;;;;;;;;;;14.50;97.30;;;14.76;64.29;98466.41;5069978;27;124222;-87
2023/05/16 06:30:42;;;;;;;;;;;14.40;97.20;;;14.75;64.33;98471.19;5084187;27;123823;-85
2023/05/16 06:33:09;;;;;;;;;;;14.50;97.30;;;14.75;64.27;98476.75;5084719;27;114835;-85
2023/05/16 06:35:35;;;;;;;;;;;14.40;97.20;;;14.80;64.12;98472.91;5072179;27;114303;-87
2023/05/16 06:38:04;;;;;;;;;;;14.50;97.20;;;14.85;64.05;98481.00;5080665;27;124100;-87
2023/05/16 06:40:30;;;;;;;;;;;14.50;97.20;;;14.87;64.22;98481.47;5090508;27;124766;-86
2023/05/16 06:42:57;;;;;;;;;;;14.50;97.20;;;14.88;63.92;98485.06;5074600;27;114319;-86
2023/05/16 06:45:26;;;;;;;;;;;14.50;97.20;;;14.87;63.73;98477.88;5067984;27;113611;-86
2023/05/16 06:47:54;;;;;;;;;;;14.50;97.20;;;14.89;64.03;98489.47;5055538;27;123608;-86
2023/05/16 06:50:21;;;;;;;;;;;14.50;97.10;;;14.90;63.79;98485.53;5084504;27;124438;-86
2023/05/16 06:52:49;;;;;;;;;;;14.60;97.10;;;14.94;63.65;98487.28;5055914;27;113794;-86
2023/05/16 06:55:16;;;;;;;;;;;14.60;97.10;;;14.96;63.60;98487.75;5058303;27;113738;-85
2023/05/16 06:57:42;;;;;;;;;;;14.60;97.10;;;14.98;63.54;98485.41;5062212;27;123772;-86
2023/05/16 07:00:09;;;;;;;;;;;14.60;97.00;;;14.99;63.54;98483.41;5083245;27;123973;-86
2023/05/16 07:02:37;;;;;;;;;;;14.70;97.00;;;15.02;63.55;98488.31;5055831;27;115299;-86
2023/05/16 07:05:04;;;;;;;;;;;14.70;96.90;;;15.01;63.17;98484.69;5073849;27;115449;-83
2023/05/16 07:07:32;;;;;;;;;;;14.70;96.90;;;14.99;63.22;98489.81;5082639;27;123960;-84
2023/05/16 07:10:01;;;;;;;;;;;14.70;96.80;;;14.96;63.51;98487.75;5074171;27;126314;-84
2023/05/16 07:12:32;;;;;;;;;;;14.70;96.90;;;14.97;63.23;98494.91;5080785;27;114643;-83
2023/05/16 07:14:58;;;;;;;;;;;14.70;96.80;;;14.95;63.09;98491.66;5089339;27;115795;-83
2023/05/16 07:17:25;;;;;;;;;;;14.70;96.80;;;14.95;63.33;98497.22;5071633;27;123057;-85
2023/05/16 07:19:51;;;;;;;;;;;14.70;96.80;;;14.99;63.22;98498.16;5061386;27;124005;-85
2023/05/16 07:22:17;;;;;;;;;;;14.70;96.80;;;15.02;62.99;98500.25;5048137;27;114016;-84
2023/05/16 07:24:44;;;;;;;;;;;14.70;96.70;;;15.04;62.95;98494.31;5081928;27;113625;-88
2023/05/16 07:27:15;;;;;;;;;;;14.70;96.60;;;15.05;62.64;98495.97;5082683;27;124083;-84
2023/05/16 07:29:41;;;;;;;;;;;14.70;96.60;;;14.97;62.62;98494.91;5052321;27;122913;-86
2023/05/16 07:32:08;;;;;;;;;;;14.70;96.40;;;14.96;62.39;98504.44;5079652;27;115035;-86
2023/05/16 07:34:36;;;;;;;;;;;14.70;96.20;;;14.98;61.96;98506.84;5070303;27;113633;-87
2023/05/16 07:37:11;;;;;;;;;;;14.70;96.10;;;15.00;61.71;98516.47;5078557;27;123938;-86
2023/05/16 07:39:39;;;;;;;;;;;14.70;95.90;;;15.04;61.49;98511.00;5083053;27;123948;-86
2023/05/16 07:42:14;;;;;;;;;;;14.70;95.90;;;15.01;61.01;98517.28;5060404;27;113545;-86
2023/05/16 07:44:44;;;;;;;;;;;14.70;95.50;;;14.96;60.88;98515.56;5086569;27;113835;-86
2023/05/16 07:47:10;;;;;;;;;;;14.70;95.30;;;14.95;60.65;98508.34;5057743;27;123565;-85
2023/05/16 07:49:38;;;;;;;;;;;14.70;95.20;;;14.95;60.51;98508.34;5054237;27;125573;-85
2023/05/16 07:52:05;;;;;;;;;;;14.70;95.10;;;14.97;60.46;98514.38;5085237;27;114452;-84
2023/05/16 07:54:32;;;;;;;;;;;14.70;95.20;;;14.95;60.18;98519.50;5046064;27;114174;-86
2023/05/16 07:56:58;;;;;;;;;;;14.70;95.00;;;14.97;60.10;98524.72;5089388;27;124416;-86
2023/05/16 07:59:27;;;;;;;;;;;14.70;94.90;;;15.00;59.91;98524.00;5059870;27;122872;-86
2023/05/16 08:01:56;;;;;;;;;;;14.70;94.80;;;14.96;59.76;98518.34;5063527;27;113675;-86
2023/05/16 08:04:22;;;;;;;;;;;14.70;94.60;;;14.97;59.90;98522.75;5045518;27;111602;-86
2023/05/16 08:06:48;;;;;;;;;;;14.80;94.70;;;15.01;59.68;98522.84;5061943;27;123352;-85
2023/05/16 08:09:18;;;;;;;;;;;14.70;94.70;;;15.01;59.71;98520.88;5058788;27;123937;-86
2023/05/16 08:11:45;;;;;;;;;;;14.70;94.60;;;14.98;59.59;98521.56;5088406;27;114437;-86
2023/05/16 08:14:11;;;;;;;;;;;14.70;94.60;;;14.95;59.86;98525.06;5067684;27;114079;-86
2023/05/16 08:16:37;;;;;;;;;;;14.60;94.70;;;14.96;59.98;98529.47;5080874;27;124058;-87
2023/05/16 08:19:03;;;;;;;;;;;14.60;94.80;;;14.95;60.34;98527.84;5053759;27;123811;-88
2023/05/16 08:21:30;;;;;;;;;;;14.70;94.90;;;14.98;60.09;98529.09;5077822;27;114257;-86
2023/05/16 08:23:57;;;;;;;;;;;14.70;95.00;;;14.95;60.15;98530.63;5062305;27;115466;-86
2023/05/16 08:26:23;;;;;;;;;;;14.60;95.20;;;14.95;60.18;98536.19;5076429;27;124319;-86
2023/05/16 08:28:50;;;;;;;;;;;14.70;95.00;;;14.97;60.18;98542.22;5055747;27;124002;-86
2023/05/16 08:31:18;;;;;;;;;;;14.70;95.00;;;14.99;60.32;98534.34;5057614;27;114482;-86
2023/05/16 08:33:44;;;;;;;;;;;14.70;95.00;;;15.01;60.64;98540.34;5071295;27;113804;-86
2023/05/16 08:36:11;;;;;;;;;;;14.70;95.00;;;15.05;60.36;98534.91;5056232;27;124322;-85
2023/05/16 08:38:37;;;;;;;;;;;14.80;95.10;;;15.06;60.44;98546.84;5064688;27;124766;-85
2023/05/16 08:41:03;;;;;;;;;;;14.70;95.00;;;15.03;60.52;98553.91;5056864;27;114233;-86
2023/05/16 08:43:30;;;;;;;;;;;14.80;95.00;;;15.03;60.47;98542.78;5067684;27;113339;-86
2023/05/16 08:45:56;;;;;;;;;;;14.70;94.90;;;14.97;60.29;98545.00;5065475;27;124900;-86
2023/05/16 08:48:23;;;;;;;;;;;14.70;95.00;;;14.91;60.69;98548.34;5069381;27;123768;-85
2023/05/16 08:50:54;;;;;;;;;;;14.60;94.90;;;14.86;60.30;98549.41;5058116;27;113674;-86
2023/05/16 08:53:22;;;;;;;;;;;14.60;94.90;;;14.80;60.37;98557.16;5068285;27;114106;-87
2023/05/16 08:55:48;;;;;;;;;;;14.60;95.00;;;14.79;60.36;98554.72;5055167;27;123324;-88
2023/05/16 08:58:15;;;;;;;;;;;14.50;95.00;;;14.80;60.34;98553.56;5060546;27;123968;-85
2023/05/16 09:00:43;;;;;;;;;;;14.50;95.00;;;14.78;60.41;98561.44;5053875;27;114583;-85
2023/05/16 09:03:10;;;;;;;;;;;14.50;95.10;;;14.78;60.87;98567.00;5066603;27;113006;-87
2023/05/16 09:05:39;;;;;;;;;;;14.50;95.10;;;14.78;60.87;98569.78;5070658;27;123348;-88
2023/05/16 09:08:06;;;;;;;;;;;14.50;95.10;;;14.81;61.08;98566.31;5064381;27;123762;-85
2023/05/16 09:10:32;;;;;;;;;;;14.50;95.20;;;14.84;60.88;98568.41;5057551;27;114494;-85
2023/05/16 09:12:58;;;;;;;;;;;14.50;95.20;;;14.87;60.96;98566.91;5064004;27;115395;-86
2023/05/16 09:15:30;;;;;;;;;;;14.50;95.30;;;14.87;60.92;98564.91;5075887;27;125300;-86
2023/05/16 09:17:59;;;;;;;;;;;14.60;95.40;;;14.89;61.04;98568.19;5052428;27;124641;-87
2023/05/16 09:20:26;;;;;;;;;;;14.60;95.40;;;14.89;61.05;98564.59;5048337;27;113437;-86
2023/05/16 09:22:57;;;;;;;;;;;14.60;95.40;;;14.90;60.79;98561.44;5060268;27;114000;-86
2023/05/16 09:25:26;;;;;;;;;;;14.90;95.60;;;14.90;61.10;98555.06;5049064;27;123280;-85
2023/05/16 09:27:58;;;;;;;;;;;14.60;95.40;;;14.93;61.10;98555.19;5075423;27;123961;-86
2023/05/16 09:30:30;;;;;;;;;;;14.60;95.40;;;14.98;61.01;98551.38;5058685;27;115274;-85
2023/05/16 09:32:56;;;;;;;;;;;14.70;95.50;;;15.01;60.98;98545.91;5073065;27;114772;-87
2023/05/16 09:35:23;;;;;;;;;;;14.70;95.50;;;15.03;61.23;98559.47;5063094;27;123864;-85
2023/05/16 09:37:53;;;;;;;;;;;14.70;95.60;;;15.08;60.90;98556.47;5058901;27;124422;-84
2023/05/16 09:40:21;;;;;;;;;;;14.70;95.50;;;15.16;61.46;98557.50;5046867;27;113800;-86
2023/05/16 09:43:00;;;;;;;;;;;14.80;95.60;;;15.19;61.21;98560.41;5051456;27;112912;-86
2023/05/16 09:45:27;;;;;;;;;;;14.80;95.70;;;15.20;61.51;98558.41;5055733;27;123971;-85
2023/05/16 09:48:00;;;;;;;;;;;14.80;95.90;;;15.22;61.37;98547.75;5072097;27;124325;-86
2023/05/16 09:50:26;;;;;;;;;;;14.90;95.90;;;15.24;61.44;98548.22;5091493;27;115532;-85
2023/05/16 09:52:55;;;;;;;;;;;14.90;95.90;;;15.27;61.21;98541.16;5056817;27;113543;-86
2023/05/16 09:55:21;;;;;;;;;;;14.90;95.80;;;15.35;61.35;98548.56;5065993;27;123581;-85
2023/05/16 09:57:48;;;;;;;;;;;14.90;95.90;;;15.41;60.98;98542.38;5051259;27;124356;-84
2023/05/16 10:00:15;;;;;;;;;;;15.00;95.80;;;15.48;60.61;98546.56;5055069;27;113407;-86
2023/05/16 10:02:44;;;;;;;;;;;15.00;95.70;;;15.49;60.18;98537.06;5073277;27;113380;-85
2023/05/16 10:05:10;;;;;;;;;;;15.10;95.40;;;15.49;60.06;98545.41;5071062;27;124179;-86
2023/05/16 10:07:40;;;;;;;;;;;15.10;95.40;;;15.52;60.12;98537.16;5049216;27;122996;-83
2023/05/16 10:10:07;;;;;;;;;;;15.10;95.30;;;15.52;60.10;98548.28;5058403;27;114415;-85
2023/05/16 10:12:35;;;;;;;;;;;15.10;95.20;;;15.56;60.02;98546.44;5084648;27;114444;-85
2023/05/16 10:15:03;;;;;;;;;;;15.20;95.20;;;15.59;59.96;98547.69;5072452;27;123460;-85
2023/05/16 10:17:33;;;;;;;;;;;15.20;95.20;;;15.59;59.92;98547.69;5060490;27;123178;-85
2023/05/16 10:20:06;;;;;;;;;;;15.10;95.10;;;15.60;59.95;98532.59;5045227;27;114916;-86
2023/05/16 10:22:42;;;;;;;;;;;15.20;95.30;;;15.67;59.89;98527.25;5065962;27;114609;-86
2023/05/16 10:25:17;;;;;;;;;;;15.30;95.30;;;15.74;59.50;98537.81;5064081;27;124154;-84
2023/05/16 10:27:43;;;;;;;;;;;15.30;95.30;;;15.79;59.70;98535.59;5091947;27;124574;-84
2023/05/16 10:30:10;;;;;;;;;;;15.30;95.20;;;15.85;59.48;98538.94;5068090;27;114189;-85
2023/05/16 10:32:36;;;;;;;;;;;15.40;95.10;;;15.90;59.16;98550.66;5090102;27;114006;-85
2023/05/16 10:35:04;;;;;;;;;;;15.50;95.00;;;15.97;58.75;98535.31;5061454;27;123857;-85
2023/05/16 10:37:31;;;;;;;;;;;15.50;94.70;;;15.96;58.36;98534.50;5059900;27;124216;-85
2023/05/16 10:40:00;;;;;;;;;;;15.50;94.60;;;15.97;58.09;98536.09;5079918;27;114374;-86
2023/05/16 10:42:26;;;;;;;;;;;15.50;94.40;;;15.98;58.31;98536.91;5070466;27;114888;-83
2023/05/16 10:44:55;;;;;;;;;;;15.50;94.50;;;16.01;58.17;98530.63;5073742;27;124788;-87
2023/05/16 10:47:26;;;;;;;;;;;15.60;94.40;;;15.98;57.90;98540.50;5061197;27;124187;-85
2023/05/16 10:49:55;;;;;;;;;;;15.60;94.30;;;15.97;58.32;98536.09;5054611;27;113826;-86
2023/05/16 10:52:34;;;;;;;;;;;15.60;94.30;;;15.89;58.15;98551.00;5055176;27;113465;-85
2023/05/16 10:55:02;;;;;;;;;;;15.60;94.20;;;15.83;58.36;98553.22;5091518;27;124935;-84
2023/05/16 10:57:35;;;;;;;;;;;15.50;94.20;;;15.81;58.26;98546.38;5079374;27;124142;-84
2023/05/16 11:00:08;;;;;;;;;;;15.50;94.20;;;15.76;58.37;98546.63;5064784;27;114207;-84
2023/05/16 11:02:43;;;;;;;;;;;15.50;94.20;;;15.70;58.47;98548.84;5066151;27;113437;-85
2023/05/16 11:05:12;;;;;;;;;;;15.40;94.30;;;15.64;59.02;98555.81;5067100;27;124359;-85
2023/05/16 11:07:39;;;;;;;;;;;15.40;94.30;;;15.65;58.98;98563.00;5061851;27;123692;-84
2023/05/16 11:10:23;;;;;;;;;;;15.40;94.40;;;15.64;59.00;98562.19;5057841;27;114233;-84
2023/05/16 11:12:53;;;;;;;;;;;15.40;94.40;;;15.61;59.21;98559.31;5081176;27;115052;-84
2023/05/16 11:15:27;;;;;;;;;;;15.40;94.60;;;15.56;60.09;98565.13;5071510;27;124244;-84
2023/05/16 11:18:14;;;;;;;;;;;15.30;94.80;;;15.49;60.48;98570.47;5079812;27;124184;-85
2023/05/16 11:20:41;;;;;;;;;;;15.30;95.00;;;15.48;60.74;98580.78;5057999;27;114572;-84
2023/05/16 11:23:23;;;;;;;;;;;15.30;95.10;;;15.46;61.45;98575.56;5057406;27;113931;-84
2023/05/16 11:25:54;;;;;;;;;;;15.20;95.60;;;15.37;61.94;98590.78;5058052;27;124839;-85
2023/05/16 11:28:23;;;;;;;;;;;15.10;96.00;;;15.27;62.70;98586.50;5056332;27;123650;-84
2023/05/16 11:30:54;;;;;;;;;;;15.10;96.30;;;15.16;63.27;98594.50;5069407;27;113377;-83
2023/05/16 11:33:22;;;;;;;;;;;15.00;96.60;;;15.12;63.37;98595.53;5067792;27;114240;-86
2023/05/16 11:36:06;;;;;;;;;;;15.00;96.60;;;14.97;64.16;98595.06;5039374;27;124559;-85
2023/05/16 11:38:34;;;;;;;;;;;14.90;96.90;;;14.92;64.35;98592.50;5062465;27;123277;-86
2023/05/16 11:41:15;;;;;;;;;;;14.80;96.90;;;14.96;64.64;98598.19;5052808;27;113750;-82
2023/05/16 11:43:43;;;;;;;;;;;14.80;97.00;;;14.96;64.45;98592.63;5060596;27;114345;-84
2023/05/16 11:46:13;;;;;;;;;;;14.80;97.20;;;14.94;64.43;98601.34;5052350;27;124331;-84
2023/05/16 11:48:40;;;;;;;;;;;14.80;97.20;;;14.96;64.21;98595.41;5042133;27;124345;-84
2023/05/16 11:51:06;;;;;;;;;;;14.80;97.00;;;14.94;64.22;98598.56;5054280;27;113457;-86
2023/05/16 11:53:33;;;;;;;;;;;14.80;97.10;;;14.93;64.30;98594.13;5080143;27;112657;-83
2023/05/16 11:56:01;;;;;;;;;;;14.70;97.00;;;14.94;64.22;98598.56;5077655;27;124885;-84
2023/05/16 11:58:29;;;;;;;;;;;15.80;97.60;;;14.95;64.15;98604.91;5061798;27;124553;-83
2023/05/16 12:00:55;;;;;;;;;;;14.70;97.10;;;14.91;64.09;98613.16;5064103;27;115306;-84
2023/05/16 12:03:24;;;;;;;;;;;14.70;97.20;;;14.90;63.95;98599.59;5083963;27;115102;-84
2023/05/16 12:05:55;;;;;;;;;;;14.60;97.10;;;14.90;63.94;98605.16;5075350;27;124842;-85
2023/05/16 12:08:24;;;;;;;;;;;14.60;97.10;;;14.91;63.94;98613.16;5055790;27;124465;-86
2023/05/16 12:10:51;;;;;;;;;;;14.70;97.10;;;14.97;63.98;98622.91;5046295;27;114066;-86
2023/05/16 12:13:19;;;;;;;;;;;14.70;97.10;;;15.06;63.90;98613.63;5069911;27;113998;-85
2023/05/16 12:15:46;;;;;;;;;;;14.70;97.20;;;15.09;63.49;98618.50;5054752;27;124091;-85
2023/05/16 12:18:13;;;;;;;;;;;14.80;97.00;;;15.05;62.80;98617.56;5076415;27;123674;-83
2023/05/16 12:20:40;;;;;;;;;;;14.80;96.70;;;15.00;62.73;98624.97;5068737;27;114497;-87
2023/05/16 12:23:13;;;;;;;;;;;14.70;96.50;;;14.96;62.02;98618.50;5067896;27;113958;-84
2023/05/16 12:25:45;;;;;;;;;;;14.70;96.20;;;14.93;61.83;98627.50;5050898;27;125351;-85